Terminal Aerodrome Forecast
Issued by NWS Cleveland, OH

Home | Current Version | Previous Version | Graphics & Text | Print | Product List | Glossary Off
Versions: 1 2 3 4 5 6 7 8 9 10 11 12 13 14 15 16 17 18 19 20 21 22

000
FTUS41 KCLE 201400 AAB
TAFTOL
TAF AMD
KTOL 201458Z 2015/2112 24016G26KT P6SM SCT040
     FM201800 26018G28KT P6SM BKN040
     FM202300 26012KT P6SM BKN035=

USA.gov is the U.S. government's official web portal to all federal, state and local government web resources and services.